sensor_id;sensor_type;location;lat;lon;timestamp;temperature;humidity
30459;DHT22;74163;50.912;6.918;2024-01-30T00:00:25;7.70;99.90
30459;DHT22;74163;50.912;6.918;2024-01-30T00:00:57;7.70;99.90
30459;DHT22;74163;50.912;6.918;2024-01-30T00:01:29;7.70;99.90
30459;DHT22;74163;50.912;6.918;2024-01-30T00:02:01;7.80;99.90
30459;DHT22;74163;50.912;6.918;2024-01-30T00:02:33;7.80;99.90
30459;DHT22;74163;50.912;6.918;2024-01-30T00:03:05;7.70;99.90
30459;DHT22;74163;50.912;6.918;2024-01-30T00:03:36;7.70;99.90
30459;DHT22;74163;50.912;6.918;2024-01-30T00:04:08;7.70;99.90
30459;DHT22;74163;50.912;6.918;2024-01-30T00:04:40;7.70;99.90
30459;DHT22;74163;50.912;6.918;2024-01-30T00:05:12;7.70;99.90
30459;DHT22;74163;50.912;6.918;2024-01-30T00:05:44;7.70;99.90
30459;DHT22;74163;50.912;6.918;2024-01-30T00:06:18;7.60;99.90
30459;DHT22;74163;50.912;6.918;2024-01-30T00:06:51;7.70;99.90
30459;DHT22;74163;50.912;6.918;2024-01-30T00:07:23;7.70;99.90
30459;DHT22;74163;50.912;6.918;2024-01-30T00:07:55;7.60;99.90
30459;DHT22;74163;50.912;6.918;2024-01-30T00:08:27;7.70;99.90
30459;DHT22;74163;50.912;6.918;2024-01-30T00:09:00;7.70;99.90
30459;DHT22;74163;50.912;6.918;2024-01-30T00:09:32;7.60;99.90
30459;DHT22;74163;50.912;6.918;2024-01-30T00:10:36;7.60;99.90
30459;DHT22;74163;50.912;6.918;2024-01-30T00:11:41;7.60;99.90
30459;DHT22;74163;50.912;6.918;2024-01-30T00:12:12;7.50;99.90
30459;DHT22;74163;50.912;6.918;2024-01-30T00:12:44;7.50;99.90
30459;DHT22;74163;50.912;6.918;2024-01-30T00:13:16;7.50;99.90
30459;DHT22;74163;50.912;6.918;2024-01-30T00:13:48;7.50;99.90
30459;DHT22;74163;50.912;6.918;2024-01-30T00:14:20;7.50;99.90
30459;DHT22;74163;50.912;6.918;2024-01-30T00:14:52;7.50;99.90
30459;DHT22;74163;50.912;6.918;2024-01-30T00:15:26;7.50;99.90
30459;DHT22;74163;50.912;6.918;2024-01-30T00:15:57;7.60;99.90
30459;DHT22;74163;50.912;6.918;2024-01-30T00:16:29;7.60;99.90
30459;DHT22;74163;50.912;6.918;2024-01-30T00:17:01;7.50;99.90
30459;DHT22;74163;50.912;6.918;2024-01-30T00:17:33;7.50;99.90
30459;DHT22;74163;50.912;6.918;2024-01-30T00:18:05;7.50;99.90
30459;DHT22;74163;50.912;6.918;2024-01-30T00:18:37;7.50;99.90
30459;DHT22;74163;50.912;6.918;2024-01-30T00:19:09;7.50;99.90
30459;DHT22;74163;50.912;6.918;2024-01-30T00:19:41;7.60;99.90
30459;DHT22;74163;50.912;6.918;2024-01-30T00:20:13;7.60;99.90
30459;DHT22;74163;50.912;6.918;2024-01-30T00:20:45;7.50;99.90
30459;DHT22;74163;50.912;6.918;2024-01-30T00:21:17;7.60;99.90
30459;DHT22;74163;50.912;6.918;2024-01-30T00:21:48;7.60;99.90
30459;DHT22;74163;50.912;6.918;2024-01-30T00:22:20;7.60;99.90
30459;DHT22;74163;50.912;6.918;2024-01-30T00:22:52;7.60;99.90
30459;DHT22;74163;50.912;6.918;2024-01-30T00:23:24;7.60;99.90
30459;DHT22;74163;50.912;6.918;2024-01-30T00:23:56;7.60;99.90
30459;DHT22;74163;50.912;6.918;2024-01-30T00:24:29;7.60;99.90
30459;DHT22;74163;50.912;6.918;2024-01-30T00:25:01;7.60;99.90
30459;DHT22;74163;50.912;6.918;2024-01-30T00:26:05;7.50;99.90
30459;DHT22;74163;50.912;6.918;2024-01-30T00:26:36;7.50;99.90
30459;DHT22;74163;50.912;6.918;2024-01-30T00:27:08;7.50;99.90
30459;DHT22;74163;50.912;6.918;2024-01-30T00:27:40;7.50;99.90
30459;DHT22;74163;50.912;6.918;2024-01-30T00:28:12;7.50;99.90
30459;DHT22;74163;50.912;6.918;2024-01-30T00:28:44;7.50;99.90
30459;DHT22;74163;50.912;6.918;2024-01-30T00:29:15;7.50;99.90
30459;DHT22;74163;50.912;6.918;2024-01-30T00:29:47;7.50;99.90
30459;DHT22;74163;50.912;6.918;2024-01-30T00:30:20;7.50;99.90
30459;DHT22;74163;50.912;6.918;2024-01-30T00:30:52;7.50;99.90
30459;DHT22;74163;50.912;6.918;2024-01-30T00:31:24;7.50;99.90
30459;DHT22;74163;50.912;6.918;2024-01-30T00:31:55;7.50;99.90
30459;DHT22;74163;50.912;6.918;2024-01-30T00:32:27;7.50;99.90
30459;DHT22;74163;50.912;6.918;2024-01-30T00:32:59;7.50;99.90
30459;DHT22;74163;50.912;6.918;2024-01-30T00:33:31;7.50;99.90
30459;DHT22;74163;50.912;6.918;2024-01-30T00:34:03;7.50;99.90
30459;DHT22;74163;50.912;6.918;2024-01-30T00:34:35;7.50;99.90
30459;DHT22;74163;50.912;6.918;2024-01-30T00:35:07;7.50;99.90
30459;DHT22;74163;50.912;6.918;2024-01-30T00:35:39;7.50;99.90
30459;DHT22;74163;50.912;6.918;2024-01-30T00:36:11;7.50;99.90
30459;DHT22;74163;50.912;6.918;2024-01-30T00:36:42;7.40;99.90
30459;DHT22;74163;50.912;6.918;2024-01-30T00:37:14;7.40;99.90
30459;DHT22;74163;50.912;6.918;2024-01-30T00:37:46;7.40;99.90
30459;DHT22;74163;50.912;6.918;2024-01-30T00:38:18;7.40;99.90
30459;DHT22;74163;50.912;6.918;2024-01-30T00:38:50;7.40;99.90
30459;DHT22;74163;50.912;6.918;2024-01-30T00:39:22;7.40;99.90
30459;DHT22;74163;50.912;6.918;2024-01-30T00:39:55;7.40;99.90
30459;DHT22;74163;50.912;6.918;2024-01-30T00:40:26;7.40;99.90
30459;DHT22;74163;50.912;6.918;2024-01-30T00:40:58;7.40;99.90
30459;DHT22;74163;50.912;6.918;2024-01-30T00:41:30;7.40;99.90
30459;DHT22;74163;50.912;6.918;2024-01-30T00:42:02;7.40;99.90
30459;DHT22;74163;50.912;6.918;2024-01-30T00:42:34;7.40;99.90
30459;DHT22;74163;50.912;6.918;2024-01-30T00:43:06;7.40;99.90
30459;DHT22;74163;50.912;6.918;2024-01-30T00:43:38;7.40;99.90
30459;DHT22;74163;50.912;6.918;2024-01-30T00:44:10;7.40;99.90
30459;DHT22;74163;50.912;6.918;2024-01-30T00:44:41;7.30;99.90
30459;DHT22;74163;50.912;6.918;2024-01-30T00:45:14;7.40;99.90
30459;DHT22;74163;50.912;6.918;2024-01-30T00:45:45;7.40;99.90
30459;DHT22;74163;50.912;6.918;2024-01-30T00:46:17;7.40;99.90
30459;DHT22;74163;50.912;6.918;2024-01-30T00:46:49;7.40;99.90
30459;DHT22;74163;50.912;6.918;2024-01-30T00:47:21;7.40;99.90
30459;DHT22;74163;50.912;6.918;2024-01-30T00:47:53;7.40;99.90
30459;DHT22;74163;50.912;6.918;2024-01-30T00:48:25;7.40;99.90
30459;DHT22;74163;50.912;6.918;2024-01-30T00:48:57;7.40;99.90
30459;DHT22;74163;50.912;6.918;2024-01-30T00:49:29;7.30;99.90
30459;DHT22;74163;50.912;6.918;2024-01-30T00:50:01;7.40;99.90
30459;DHT22;74163;50.912;6.918;2024-01-30T00:50:32;7.30;99.90
30459;DHT22;74163;50.912;6.918;2024-01-30T00:51:04;7.40;99.90
30459;DHT22;74163;50.912;6.918;2024-01-30T00:52:09;7.30;99.90
30459;DHT22;74163;50.912;6.918;2024-01-30T00:52:41;7.30;99.90
30459;DHT22;74163;50.912;6.918;2024-01-30T00:53:13;7.30;99.90
30459;DHT22;74163;50.912;6.918;2024-01-30T00:53:45;7.30;99.90
30459;DHT22;74163;50.912;6.918;2024-01-30T00:54:16;7.30;99.90
30459;DHT22;74163;50.912;6.918;2024-01-30T00:54:48;7.30;99.90
30459;DHT22;74163;50.912;6.918;2024-01-30T00:55:21;7.30;99.90
30459;DHT22;74163;50.912;6.918;2024-01-30T00:55:53;7.30;99.90
30459;DHT22;74163;50.912;6.918;2024-01-30T00:56:57;7.30;99.90
30459;DHT22;74163;50.912;6.918;2024-01-30T00:57:29;7.30;99.90
30459;DHT22;74163;50.912;6.918;2024-01-30T00:58:01;7.30;99.90
30459;DHT22;74163;50.912;6.918;2024-01-30T00:58:33;7.30;99.90
30459;DHT22;74163;50.912;6.918;2024-01-30T00:59:37;7.20;99.90
30459;DHT22;74163;50.912;6.918;2024-01-30T01:00:42;7.30;99.90
30459;DHT22;74163;50.912;6.918;2024-01-30T01:02:19;7.20;99.90
30459;DHT22;74163;50.912;6.918;2024-01-30T01:03:24;7.30;99.90
30459;DHT22;74163;50.912;6.918;2024-01-30T01:03:56;7.30;99.90
30459;DHT22;74163;50.912;6.918;2024-01-30T01:04:27;7.20;99.90
30459;DHT22;74163;50.912;6.918;2024-01-30T01:04:59;7.30;99.90
30459;DHT22;74163;50.912;6.918;2024-01-30T01:05:31;7.30;99.90
30459;DHT22;74163;50.912;6.918;2024-01-30T01:06:03;7.20;99.90
30459;DHT22;74163;50.912;6.918;2024-01-30T01:06:35;7.30;99.90
30459;DHT22;74163;50.912;6.918;2024-01-30T01:07:07;7.30;99.90
30459;DHT22;74163;50.912;6.918;2024-01-30T01:07:39;7.30;99.90
30459;DHT22;74163;50.912;6.918;2024-01-30T01:08:11;7.30;99.90
30459;DHT22;74163;50.912;6.918;2024-01-30T01:08:43;7.30;99.90
30459;DHT22;74163;50.912;6.918;2024-01-30T01:09:15;7.30;99.90
30459;DHT22;74163;50.912;6.918;2024-01-30T01:10:20;7.50;99.90
30459;DHT22;74163;50.912;6.918;2024-01-30T01:10:52;7.30;99.90
30459;DHT22;74163;50.912;6.918;2024-01-30T01:11:24;7.40;99.90
30459;DHT22;74163;50.912;6.918;2024-01-30T01:11:56;7.30;99.90
30459;DHT22;74163;50.912;6.918;2024-01-30T01:13:00;7.40;99.90
30459;DHT22;74163;50.912;6.918;2024-01-30T01:13:32;7.50;99.90
30459;DHT22;74163;50.912;6.918;2024-01-30T01:14:36;7.40;99.90
30459;DHT22;74163;50.912;6.918;2024-01-30T01:15:40;7.90;99.90
30459;DHT22;74163;50.912;6.918;2024-01-30T01:16:12;7.40;99.90
30459;DHT22;74163;50.912;6.918;2024-01-30T01:16:44;7.40;99.90
30459;DHT22;74163;50.912;6.918;2024-01-30T01:17:16;7.40;99.90
30459;DHT22;74163;50.912;6.918;2024-01-30T01:17:47;7.40;99.90
30459;DHT22;74163;50.912;6.918;2024-01-30T01:18:19;7.40;99.90
30459;DHT22;74163;50.912;6.918;2024-01-30T01:18:51;7.40;99.90
30459;DHT22;74163;50.912;6.918;2024-01-30T01:19:23;7.50;99.90
30459;DHT22;74163;50.912;6.918;2024-01-30T01:19:55;7.50;99.90
30459;DHT22;74163;50.912;6.918;2024-01-30T01:20:27;7.50;99.90
30459;DHT22;74163;50.912;6.918;2024-01-30T01:20:59;7.50;99.90
30459;DHT22;74163;50.912;6.918;2024-01-30T01:21:31;7.40;99.90
30459;DHT22;74163;50.912;6.918;2024-01-30T01:22:03;7.50;99.90
30459;DHT22;74163;50.912;6.918;2024-01-30T01:22:35;7.50;99.90
30459;DHT22;74163;50.912;6.918;2024-01-30T01:23:06;7.40;99.90
30459;DHT22;74163;50.912;6.918;2024-01-30T01:23:38;7.40;99.90
30459;DHT22;74163;50.912;6.918;2024-01-30T01:24:10;7.40;99.90
30459;DHT22;74163;50.912;6.918;2024-01-30T01:24:42;7.50;99.90
30459;DHT22;74163;50.912;6.918;2024-01-30T01:25:14;7.40;99.90
30459;DHT22;74163;50.912;6.918;2024-01-30T01:25:47;7.50;99.90
30459;DHT22;74163;50.912;6.918;2024-01-30T01:26:19;7.40;99.90
30459;DHT22;74163;50.912;6.918;2024-01-30T01:26:51;7.40;99.90
30459;DHT22;74163;50.912;6.918;2024-01-30T01:27:23;7.50;99.90
30459;DHT22;74163;50.912;6.918;2024-01-30T01:27:54;7.40;99.90
30459;DHT22;74163;50.912;6.918;2024-01-30T01:28:26;7.50;99.90
30459;DHT22;74163;50.912;6.918;2024-01-30T01:28:58;7.50;99.90
30459;DHT22;74163;50.912;6.918;2024-01-30T01:29:30;7.50;99.90
30459;DHT22;74163;50.912;6.918;2024-01-30T01:30:02;7.50;99.90
30459;DHT22;74163;50.912;6.918;2024-01-30T01:30:34;7.50;99.90
30459;DHT22;74163;50.912;6.918;2024-01-30T01:31:06;7.50;99.90
30459;DHT22;74163;50.912;6.918;2024-01-30T01:31:38;7.60;99.90
30459;DHT22;74163;50.912;6.918;2024-01-30T01:32:10;7.50;99.90
30459;DHT22;74163;50.912;6.918;2024-01-30T01:32:42;7.40;99.90
30459;DHT22;74163;50.912;6.918;2024-01-30T01:33:14;7.50;99.90
30459;DHT22;74163;50.912;6.918;2024-01-30T01:33:46;7.50;99.90
30459;DHT22;74163;50.912;6.918;2024-01-30T01:34:18;7.50;99.90
30459;DHT22;74163;50.912;6.918;2024-01-30T01:34:50;7.40;99.90
30459;DHT22;74163;50.912;6.918;2024-01-30T01:35:23;7.50;99.90
30459;DHT22;74163;50.912;6.918;2024-01-30T01:35:55;7.50;99.90
30459;DHT22;74163;50.912;6.918;2024-01-30T01:36:26;7.50;99.90
30459;DHT22;74163;50.912;6.918;2024-01-30T01:36:58;7.50;99.90
30459;DHT22;74163;50.912;6.918;2024-01-30T01:37:30;7.50;99.90
30459;DHT22;74163;50.912;6.918;2024-01-30T01:38:02;7.50;99.90
30459;DHT22;74163;50.912;6.918;2024-01-30T01:38:34;7.50;99.90
30459;DHT22;74163;50.912;6.918;2024-01-30T01:39:06;7.50;99.90
30459;DHT22;74163;50.912;6.918;2024-01-30T01:39:38;7.50;99.90
30459;DHT22;74163;50.912;6.918;2024-01-30T01:40:10;7.50;99.90
30459;DHT22;74163;50.912;6.918;2024-01-30T01:40:42;7.50;99.90
30459;DHT22;74163;50.912;6.918;2024-01-30T01:41:15;7.60;99.90
30459;DHT22;74163;50.912;6.918;2024-01-30T01:42:19;7.60;99.90
30459;DHT22;74163;50.912;6.918;2024-01-30T01:42:51;7.60;99.90
30459;DHT22;74163;50.912;6.918;2024-01-30T01:43:23;7.60;99.90
30459;DHT22;74163;50.912;6.918;2024-01-30T01:43:55;7.60;99.90
30459;DHT22;74163;50.912;6.918;2024-01-30T01:44:27;7.70;99.90
30459;DHT22;74163;50.912;6.918;2024-01-30T01:44:59;7.60;99.90
30459;DHT22;74163;50.912;6.918;2024-01-30T01:46:03;7.60;99.90
30459;DHT22;74163;50.912;6.918;2024-01-30T01:46:35;7.60;99.90
30459;DHT22;74163;50.912;6.918;2024-01-30T01:47:08;7.60;99.90
30459;DHT22;74163;50.912;6.918;2024-01-30T01:47:40;7.60;99.90
30459;DHT22;74163;50.912;6.918;2024-01-30T01:48:12;7.60;99.90
30459;DHT22;74163;50.912;6.918;2024-01-30T01:48:44;7.60;99.90
30459;DHT22;74163;50.912;6.918;2024-01-30T01:49:16;7.70;99.90
30459;DHT22;74163;50.912;6.918;2024-01-30T01:49:48;7.60;99.90
30459;DHT22;74163;50.912;6.918;2024-01-30T01:50:21;7.70;99.90
30459;DHT22;74163;50.912;6.918;2024-01-30T01:50:53;7.70;99.90
30459;DHT22;74163;50.912;6.918;2024-01-30T01:51:27;7.70;99.90
30459;DHT22;74163;50.912;6.918;2024-01-30T01:52:00;7.70;99.90
30459;DHT22;74163;50.912;6.918;2024-01-30T01:52:32;7.70;99.90
30459;DHT22;74163;50.912;6.918;2024-01-30T01:53:05;7.70;99.90
30459;DHT22;74163;50.912;6.918;2024-01-30T01:53:39;7.70;99.90
30459;DHT22;74163;50.912;6.918;2024-01-30T01:54:11;7.80;99.90
30459;DHT22;74163;50.912;6.918;2024-01-30T01:54:43;7.70;99.90
30459;DHT22;74163;50.912;6.918;2024-01-30T01:55:16;7.70;99.90
30459;DHT22;74163;50.912;6.918;2024-01-30T01:55:48;7.70;99.90
30459;DHT22;74163;50.912;6.918;2024-01-30T01:56:22;7.70;99.90
30459;DHT22;74163;50.912;6.918;2024-01-30T01:56:54;7.70;99.90
30459;DHT22;74163;50.912;6.918;2024-01-30T01:57:26;7.80;99.90
30459;DHT22;74163;50.912;6.918;2024-01-30T01:57:58;7.80;99.90
30459;DHT22;74163;50.912;6.918;2024-01-30T01:58:30;7.70;99.90
30459;DHT22;74163;50.912;6.918;2024-01-30T01:59:05;7.70;99.90
30459;DHT22;74163;50.912;6.918;2024-01-30T01:59:37;7.70;99.90
30459;DHT22;74163;50.912;6.918;2024-01-30T02:00:10;7.80;99.90
30459;DHT22;74163;50.912;6.918;2024-01-30T02:00:42;7.80;99.90
30459;DHT22;74163;50.912;6.918;2024-01-30T02:01:14;7.80;99.90
30459;DHT22;74163;50.912;6.918;2024-01-30T02:01:48;7.80;99.90
30459;DHT22;74163;50.912;6.918;2024-01-30T02:02:20;7.80;99.90
30459;DHT22;74163;50.912;6.918;2024-01-30T02:02:54;7.70;99.90
30459;DHT22;74163;50.912;6.918;2024-01-30T02:03:26;7.80;99.90
30459;DHT22;74163;50.912;6.918;2024-01-30T02:04:31;7.80;99.90
30459;DHT22;74163;50.912;6.918;2024-01-30T02:05:04;7.80;99.90
30459;DHT22;74163;50.912;6.918;2024-01-30T02:05:36;7.80;99.90
30459;DHT22;74163;50.912;6.918;2024-01-30T02:06:08;7.80;99.90
30459;DHT22;74163;50.912;6.918;2024-01-30T02:06:41;7.80;99.90
30459;DHT22;74163;50.912;6.918;2024-01-30T02:07:13;7.80;99.90
30459;DHT22;74163;50.912;6.918;2024-01-30T02:07:45;7.90;99.90
30459;DHT22;74163;50.912;6.918;2024-01-30T02:08:17;7.90;99.90
30459;DHT22;74163;50.912;6.918;2024-01-30T02:08:49;7.80;99.90
30459;DHT22;74163;50.912;6.918;2024-01-30T02:09:20;7.80;99.90
30459;DHT22;74163;50.912;6.918;2024-01-30T02:09:52;7.90;99.90
30459;DHT22;74163;50.912;6.918;2024-01-30T02:10:57;7.80;99.90
30459;DHT22;74163;50.912;6.918;2024-01-30T02:11:30;7.90;99.90
30459;DHT22;74163;50.912;6.918;2024-01-30T02:12:03;7.90;99.90
30459;DHT22;74163;50.912;6.918;2024-01-30T02:12:35;7.90;99.90
30459;DHT22;74163;50.912;6.918;2024-01-30T02:13:07;7.90;99.90
30459;DHT22;74163;50.912;6.918;2024-01-30T02:13:39;7.90;99.90
30459;DHT22;74163;50.912;6.918;2024-01-30T02:14:12;7.90;99.90
30459;DHT22;74163;50.912;6.918;2024-01-30T02:14:45;7.90;99.90
30459;DHT22;74163;50.912;6.918;2024-01-30T02:15:17;7.90;99.90
30459;DHT22;74163;50.912;6.918;2024-01-30T02:15:49;7.90;99.90
30459;DHT22;74163;50.912;6.918;2024-01-30T02:16:21;7.90;99.90
30459;DHT22;74163;50.912;6.918;2024-01-30T02:16:53;7.90;99.90
30459;DHT22;74163;50.912;6.918;2024-01-30T02:17:25;7.90;99.90
30459;DHT22;74163;50.912;6.918;2024-01-30T02:17:57;8.00;99.90
30459;DHT22;74163;50.912;6.918;2024-01-30T02:18:28;7.90;99.90
30459;DHT22;74163;50.912;6.918;2024-01-30T02:19:00;7.90;99.90
30459;DHT22;74163;50.912;6.918;2024-01-30T02:19:32;7.90;99.90
30459;DHT22;74163;50.912;6.918;2024-01-30T02:20:05;7.90;99.90
30459;DHT22;74163;50.912;6.918;2024-01-30T02:20:37;7.80;99.90
30459;DHT22;74163;50.912;6.918;2024-01-30T02:21:11;7.80;99.90
30459;DHT22;74163;50.912;6.918;2024-01-30T02:21:44;7.80;99.90
30459;DHT22;74163;50.912;6.918;2024-01-30T02:22:16;7.90;99.90
30459;DHT22;74163;50.912;6.918;2024-01-30T02:22:49;7.90;99.90
30459;DHT22;74163;50.912;6.918;2024-01-30T02:23:20;7.90;99.90
30459;DHT22;74163;50.912;6.918;2024-01-30T02:23:55;7.90;99.90
30459;DHT22;74163;50.912;6.918;2024-01-30T02:24:27;7.90;99.90
30459;DHT22;74163;50.912;6.918;2024-01-30T02:24:59;7.90;99.90
30459;DHT22;74163;50.912;6.918;2024-01-30T02:25:32;7.90;99.90
30459;DHT22;74163;50.912;6.918;2024-01-30T02:26:04;7.80;99.90
30459;DHT22;74163;50.912;6.918;2024-01-30T02:26:36;7.90;99.90
30459;DHT22;74163;50.912;6.918;2024-01-30T02:27:08;7.90;99.90
30459;DHT22;74163;50.912;6.918;2024-01-30T02:27:40;7.90;99.90
30459;DHT22;74163;50.912;6.918;2024-01-30T02:28:45;7.80;99.90
30459;DHT22;74163;50.912;6.918;2024-01-30T02:29:16;7.80;99.90
30459;DHT22;74163;50.912;6.918;2024-01-30T02:29:48;7.80;99.90
30459;DHT22;74163;50.912;6.918;2024-01-30T02:30:20;7.90;99.90
30459;DHT22;74163;50.912;6.918;2024-01-30T02:30:52;7.90;99.90
30459;DHT22;74163;50.912;6.918;2024-01-30T02:31:25;7.90;99.90
30459;DHT22;74163;50.912;6.918;2024-01-30T02:32:29;7.90;99.90
30459;DHT22;74163;50.912;6.918;2024-01-30T02:33:01;7.80;99.90
30459;DHT22;74163;50.912;6.918;2024-01-30T02:33:33;7.80;99.90
30459;DHT22;74163;50.912;6.918;2024-01-30T02:34:05;7.90;99.90
30459;DHT22;74163;50.912;6.918;2024-01-30T02:34:37;7.90;99.90
30459;DHT22;74163;50.912;6.918;2024-01-30T02:35:08;7.80;99.90
30459;DHT22;74163;50.912;6.918;2024-01-30T02:35:40;7.90;99.90
30459;DHT22;74163;50.912;6.918;2024-01-30T02:36:14;7.90;99.90
30459;DHT22;74163;50.912;6.918;2024-01-30T02:36:45;7.90;99.90
30459;DHT22;74163;50.912;6.918;2024-01-30T02:37:17;7.80;99.90
30459;DHT22;74163;50.912;6.918;2024-01-30T02:37:49;7.90;99.90
30459;DHT22;74163;50.912;6.918;2024-01-30T02:38:21;7.90;99.90
30459;DHT22;74163;50.912;6.918;2024-01-30T02:39:26;7.80;99.90
30459;DHT22;74163;50.912;6.918;2024-01-30T02:39:57;7.90;99.90
30459;DHT22;74163;50.912;6.918;2024-01-30T02:40:29;7.90;99.90
30459;DHT22;74163;50.912;6.918;2024-01-30T02:41:01;7.90;99.90
30459;DHT22;74163;50.912;6.918;2024-01-30T02:41:33;7.90;99.90
30459;DHT22;74163;50.912;6.918;2024-01-30T02:42:05;7.90;99.90
30459;DHT22;74163;50.912;6.918;2024-01-30T02:42:37;7.90;99.90
30459;DHT22;74163;50.912;6.918;2024-01-30T02:43:09;7.80;99.90
30459;DHT22;74163;50.912;6.918;2024-01-30T02:43:41;7.90;99.90
30459;DHT22;74163;50.912;6.918;2024-01-30T02:44:12;7.90;99.90
30459;DHT22;74163;50.912;6.918;2024-01-30T02:44:44;7.90;99.90
30459;DHT22;74163;50.912;6.918;2024-01-30T02:45:16;7.90;99.90
30459;DHT22;74163;50.912;6.918;2024-01-30T02:45:48;7.90;99.90
30459;DHT22;74163;50.912;6.918;2024-01-30T02:46:20;7.90;99.90
30459;DHT22;74163;50.912;6.918;2024-01-30T02:46:52;7.90;99.90
30459;DHT22;74163;50.912;6.918;2024-01-30T02:47:24;7.80;99.90
30459;DHT22;74163;50.912;6.918;2024-01-30T02:48:28;7.90;99.90
30459;DHT22;74163;50.912;6.918;2024-01-30T02:49:00;7.90;99.90
30459;DHT22;74163;50.912;6.918;2024-01-30T02:49:32;7.80;99.90
30459;DHT22;74163;50.912;6.918;2024-01-30T02:50:05;7.90;99.90
30459;DHT22;74163;50.912;6.918;2024-01-30T02:50:37;7.90;99.90
30459;DHT22;74163;50.912;6.918;2024-01-30T02:51:08;7.90;99.90
30459;DHT22;74163;50.912;6.918;2024-01-30T02:51:42;7.90;99.90
30459;DHT22;74163;50.912;6.918;2024-01-30T02:52:13;7.90;99.90
30459;DHT22;74163;50.912;6.918;2024-01-30T02:52:45;8.00;99.90
30459;DHT22;74163;50.912;6.918;2024-01-30T02:53:17;7.90;99.90
30459;DHT22;74163;50.912;6.918;2024-01-30T02:54:21;7.90;99.90
30459;DHT22;74163;50.912;6.918;2024-01-30T02:54:53;7.90;99.90
30459;DHT22;74163;50.912;6.918;2024-01-30T02:55:25;7.90;99.90
30459;DHT22;74163;50.912;6.918;2024-01-30T02:55:57;7.90;99.90
30459;DHT22;74163;50.912;6.918;2024-01-30T02:56:29;7.90;99.90
30459;DHT22;74163;50.912;6.918;2024-01-30T02:57:32;7.90;99.90
30459;DHT22;74163;50.912;6.918;2024-01-30T02:58:04;7.90;99.90
30459;DHT22;74163;50.912;6.918;2024-01-30T02:58:36;7.90;99.90
30459;DHT22;74163;50.912;6.918;2024-01-30T02:59:08;7.90;99.90
30459;DHT22;74163;50.912;6.918;2024-01-30T02:59:40;7.80;99.90
30459;DHT22;74163;50.912;6.918;2024-01-30T03:00:12;7.90;99.90
30459;DHT22;74163;50.912;6.918;2024-01-30T03:00:44;7.90;99.90
30459;DHT22;74163;50.912;6.918;2024-01-30T03:01:16;8.00;99.90
30459;DHT22;74163;50.912;6.918;2024-01-30T03:01:48;7.90;99.90
30459;DHT22;74163;50.912;6.918;2024-01-30T03:02:20;7.90;99.90
30459;DHT22;74163;50.912;6.918;2024-01-30T03:02:52;7.90;99.90
30459;DHT22;74163;50.912;6.918;2024-01-30T03:03:24;7.90;99.90
30459;DHT22;74163;50.912;6.918;2024-01-30T03:03:56;7.90;99.90
30459;DHT22;74163;50.912;6.918;2024-01-30T03:04:28;7.90;99.90
30459;DHT22;74163;50.912;6.918;2024-01-30T03:05:00;7.90;99.90
30459;DHT22;74163;50.912;6.918;2024-01-30T03:05:32;7.90;99.90
30459;DHT22;74163;50.912;6.918;2024-01-30T03:06:04;7.90;99.90
30459;DHT22;74163;50.912;6.918;2024-01-30T03:07:11;7.90;99.90
30459;DHT22;74163;50.912;6.918;2024-01-30T03:07:43;7.90;99.90
30459;DHT22;74163;50.912;6.918;2024-01-30T03:08:15;7.90;99.90
30459;DHT22;74163;50.912;6.918;2024-01-30T03:08:47;7.80;99.90
30459;DHT22;74163;50.912;6.918;2024-01-30T03:09:18;7.90;99.90
30459;DHT22;74163;50.912;6.918;2024-01-30T03:09:50;7.90;99.90
30459;DHT22;74163;50.912;6.918;2024-01-30T03:10:22;7.80;99.90
30459;DHT22;74163;50.912;6.918;2024-01-30T03:10:54;7.80;99.90
30459;DHT22;74163;50.912;6.918;2024-01-30T03:11:26;7.90;99.90
30459;DHT22;74163;50.912;6.918;2024-01-30T03:11:58;7.90;99.90
30459;DHT22;74163;50.912;6.918;2024-01-30T03:12:30;7.90;99.90
30459;DHT22;74163;50.912;6.918;2024-01-30T03:13:34;7.90;99.90
30459;DHT22;74163;50.912;6.918;2024-01-30T03:14:06;7.70;99.90
30459;DHT22;74163;50.912;6.918;2024-01-30T03:14:38;7.80;99.90
30459;DHT22;74163;50.912;6.918;2024-01-30T03:15:10;7.80;99.90
30459;DHT22;74163;50.912;6.918;2024-01-30T03:15:42;7.60;99.90
30459;DHT22;74163;50.912;6.918;2024-01-30T03:16:13;7.80;99.90
30459;DHT22;74163;50.912;6.918;2024-01-30T03:16:45;7.80;99.90
30459;DHT22;74163;50.912;6.918;2024-01-30T03:17:17;7.90;99.90
30459;DHT22;74163;50.912;6.918;2024-01-30T03:17:49;7.90;99.90
30459;DHT22;74163;50.912;6.918;2024-01-30T03:18:53;7.80;99.90
30459;DHT22;74163;50.912;6.918;2024-01-30T03:19:25;7.80;99.90
30459;DHT22;74163;50.912;6.918;2024-01-30T03:19:57;7.80;99.90
30459;DHT22;74163;50.912;6.918;2024-01-30T03:20:29;7.80;99.90
30459;DHT22;74163;50.912;6.918;2024-01-30T03:21:00;7.80;99.90
30459;DHT22;74163;50.912;6.918;2024-01-30T03:21:32;7.80;99.90
30459;DHT22;74163;50.912;6.918;2024-01-30T03:22:04;7.80;99.90
30459;DHT22;74163;50.912;6.918;2024-01-30T03:22:37;7.80;99.90
30459;DHT22;74163;50.912;6.918;2024-01-30T03:23:41;7.80;99.90
30459;DHT22;74163;50.912;6.918;2024-01-30T03:24:13;7.80;99.90
30459;DHT22;74163;50.912;6.918;2024-01-30T03:24:45;7.90;99.90
30459;DHT22;74163;50.912;6.918;2024-01-30T03:25:16;7.80;99.90
30459;DHT22;74163;50.912;6.918;2024-01-30T03:25:48;7.80;99.90
30459;DHT22;74163;50.912;6.918;2024-01-30T03:26:20;7.80;99.90
30459;DHT22;74163;50.912;6.918;2024-01-30T03:26:52;7.80;99.90
30459;DHT22;74163;50.912;6.918;2024-01-30T03:27:24;7.80;99.90
30459;DHT22;74163;50.912;6.918;2024-01-30T03:27:56;7.90;99.90
30459;DHT22;74163;50.912;6.918;2024-01-30T03:28:28;7.90;99.90
30459;DHT22;74163;50.912;6.918;2024-01-30T03:29:32;7.80;99.90
30459;DHT22;74163;50.912;6.918;2024-01-30T03:30:05;7.80;99.90
30459;DHT22;74163;50.912;6.918;2024-01-30T03:31:09;7.80;99.90
30459;DHT22;74163;50.912;6.918;2024-01-30T03:31:41;7.80;99.90
30459;DHT22;74163;50.912;6.918;2024-01-30T03:32:13;7.80;99.90
30459;DHT22;74163;50.912;6.918;2024-01-30T03:32:44;7.80;99.90
30459;DHT22;74163;50.912;6.918;2024-01-30T03:33:16;7.80;99.90
30459;DHT22;74163;50.912;6.918;2024-01-30T03:34:20;7.80;99.90
30459;DHT22;74163;50.912;6.918;2024-01-30T03:34:53;7.70;99.90
30459;DHT22;74163;50.912;6.918;2024-01-30T03:35:25;7.80;99.90
30459;DHT22;74163;50.912;6.918;2024-01-30T03:35:57;7.80;99.90
30459;DHT22;74163;50.912;6.918;2024-01-30T03:36:29;7.80;99.90
30459;DHT22;74163;50.912;6.918;2024-01-30T03:37:01;7.80;99.90
30459;DHT22;74163;50.912;6.918;2024-01-30T03:37:33;7.80;99.90
30459;DHT22;74163;50.912;6.918;2024-01-30T03:38:06;7.80;99.90
30459;DHT22;74163;50.912;6.918;2024-01-30T03:38:38;7.70;99.90
30459;DHT22;74163;50.912;6.918;2024-01-30T03:39:10;7.70;99.90
30459;DHT22;74163;50.912;6.918;2024-01-30T03:39:41;7.70;99.90
30459;DHT22;74163;50.912;6.918;2024-01-30T03:40:13;7.70;99.90
30459;DHT22;74163;50.912;6.918;2024-01-30T03:41:17;7.80;99.90
30459;DHT22;74163;50.912;6.918;2024-01-30T03:41:49;7.80;99.90
30459;DHT22;74163;50.912;6.918;2024-01-30T03:42:21;7.80;99.90
30459;DHT22;74163;50.912;6.918;2024-01-30T03:42:53;7.80;99.90